createdAt,value
2018-08-08T00:00:22.744Z,999.86
2018-08-08T00:00:48.898Z,999.88
2018-08-08T00:01:15.061Z,999.86
2018-08-08T00:01:41.199Z,999.85
2018-08-08T00:02:07.385Z,999.84
2018-08-08T00:02:33.536Z,999.86
2018-08-08T00:02:59.694Z,999.84
2018-08-08T00:03:25.836Z,999.83
2018-08-08T00:03:51.969Z,999.85
2018-08-08T00:04:18.106Z,999.84
2018-08-08T00:04:44.265Z,999.84
2018-08-08T00:05:10.435Z,999.84
2018-08-08T00:05:36.592Z,999.84
2018-08-08T00:06:02.722Z,999.83
2018-08-08T00:06:28.864Z,999.8
2018-08-08T00:06:55.023Z,999.82
2018-08-08T00:07:21.200Z,999.81
2018-08-08T00:07:47.337Z,999.81
2018-08-08T00:08:13.474Z,999.79
2018-08-08T00:08:39.617Z,999.76
2018-08-08T00:09:05.751Z,999.79
2018-08-08T00:09:31.890Z,999.8
2018-08-08T00:09:58.027Z,999.8
2018-08-08T00:10:24.166Z,999.8
2018-08-08T00:10:50.303Z,999.78
2018-08-08T00:11:16.444Z,999.78
2018-08-08T00:11:42.585Z,999.8
2018-08-08T00:12:08.723Z,999.87
2018-08-08T00:12:34.885Z,999.84
2018-08-08T00:13:01.022Z,999.87
2018-08-08T00:13:27.163Z,999.86
2018-08-08T00:13:53.305Z,999.86
2018-08-08T00:14:19.444Z,999.89
2018-08-08T00:14:45.580Z,999.89
2018-08-08T00:15:11.712Z,999.92
2018-08-08T00:15:37.861Z,999.92
2018-08-08T00:16:03.991Z,999.92
2018-08-08T00:16:30.148Z,999.93
2018-08-08T00:16:56.306Z,999.93
2018-08-08T00:17:22.450Z,999.94
2018-08-08T00:17:48.587Z,999.94
2018-08-08T00:18:14.744Z,999.94
2018-08-08T00:18:40.883Z,999.94
2018-08-08T00:19:07.102Z,999.9
2018-08-08T00:19:33.187Z,999.94
2018-08-08T00:19:59.324Z,999.92
2018-08-08T00:20:25.465Z,999.93
2018-08-08T00:20:51.615Z,999.93
2018-08-08T00:21:17.751Z,999.91
2018-08-08T00:21:43.887Z,999.92
2018-08-08T00:22:10.030Z,999.93
2018-08-08T00:22:36.164Z,999.94
2018-08-08T00:23:02.302Z,999.9
2018-08-08T00:23:28.439Z,999.9
2018-08-08T00:23:54.597Z,999.94
2018-08-08T00:24:20.733Z,999.92
2018-08-08T00:24:46.870Z,999.92
2018-08-08T00:25:13.009Z,999.92
2018-08-08T00:25:39.143Z,999.93
2018-08-08T00:26:05.282Z,999.92
2018-08-08T00:26:31.421Z,999.95
2018-08-08T00:26:57.559Z,999.92
2018-08-08T00:27:23.692Z,999.93
2018-08-08T00:27:49.823Z,999.91
2018-08-08T00:28:15.986Z,999.93
2018-08-08T00:28:42.120Z,999.89
2018-08-08T00:29:08.267Z,999.93
2018-08-08T00:29:34.411Z,999.93
2018-08-08T00:30:00.542Z,999.93
2018-08-08T00:30:26.683Z,999.93
2018-08-08T00:30:52.823Z,999.92
2018-08-08T00:31:18.954Z,999.91
2018-08-08T00:31:45.097Z,999.89
2018-08-08T00:32:11.233Z,999.9
2018-08-08T00:32:37.376Z,999.91
2018-08-08T00:33:03.521Z,999.89
2018-08-08T00:33:29.655Z,999.9
2018-08-08T00:33:55.787Z,999.88
2018-08-08T00:34:21.931Z,999.88
2018-08-08T00:34:48.076Z,999.89
2018-08-08T00:35:14.207Z,999.89
2018-08-08T00:35:40.345Z,999.91
2018-08-08T00:36:06.489Z,999.9
2018-08-08T00:36:32.623Z,999.92
2018-08-08T00:36:58.761Z,999.88
2018-08-08T00:37:24.893Z,999.92
2018-08-08T00:37:51.026Z,999.91
2018-08-08T00:38:17.162Z,999.97
2018-08-08T00:38:43.301Z,999.92
2018-08-08T00:39:09.432Z,999.93
2018-08-08T00:39:35.572Z,999.88
2018-08-08T00:40:01.707Z,999.88
2018-08-08T00:40:27.871Z,999.88
2018-08-08T00:40:54.009Z,999.87
2018-08-08T00:41:20.153Z,999.85
2018-08-08T00:41:46.311Z,999.82
2018-08-08T00:42:12.471Z,999.82
2018-08-08T00:42:38.630Z,999.82
2018-08-08T00:43:04.766Z,999.77
2018-08-08T00:43:30.911Z,999.74
2018-08-08T00:43:57.067Z,999.74
2018-08-08T00:44:23.198Z,999.73
2018-08-08T00:44:49.338Z,999.71
2018-08-08T00:45:15.473Z,999.71
2018-08-08T00:45:41.608Z,999.7
2018-08-08T00:46:07.752Z,999.68
2018-08-08T00:46:33.886Z,999.68
2018-08-08T00:47:00.019Z,999.65
2018-08-08T00:47:26.178Z,999.67
2018-08-08T00:47:52.346Z,999.66
2018-08-08T00:48:18.500Z,999.63
2018-08-08T00:48:44.640Z,999.68
2018-08-08T00:49:10.772Z,999.65
2018-08-08T00:49:36.932Z,999.66
2018-08-08T00:50:03.079Z,999.64
2018-08-08T00:50:29.211Z,999.66
2018-08-08T00:50:55.348Z,999.62
2018-08-08T00:51:21.489Z,999.61
2018-08-08T00:51:47.623Z,999.61
2018-08-08T00:52:13.788Z,999.65
2018-08-08T00:52:39.921Z,999.63
2018-08-08T00:53:06.063Z,999.6
2018-08-08T00:53:32.192Z,999.6
2018-08-08T00:53:58.353Z,999.6
2018-08-08T00:54:24.488Z,999.58
2018-08-08T00:54:50.634Z,999.59
2018-08-08T00:55:16.769Z,999.59
2018-08-08T00:55:42.907Z,999.62
2018-08-08T00:56:09.047Z,999.62
2018-08-08T00:56:35.178Z,999.56
2018-08-08T00:57:01.315Z,999.58
2018-08-08T00:57:27.479Z,999.58
2018-08-08T00:57:53.621Z,999.58
2018-08-08T00:58:19.806Z,999.56
2018-08-08T00:58:45.945Z,999.58
2018-08-08T00:59:12.111Z,999.58
2018-08-08T00:59:38.246Z,999.57
2018-08-08T01:00:04.406Z,999.61
2018-08-08T01:00:30.551Z,999.6
2018-08-08T01:00:56.708Z,999.58
2018-08-08T01:01:22.840Z,999.62
2018-08-08T01:01:48.993Z,999.64
2018-08-08T01:02:15.136Z,999.64
2018-08-08T01:02:41.282Z,999.6
2018-08-08T01:03:07.411Z,999.64
2018-08-08T01:03:33.552Z,999.63
2018-08-08T01:03:59.688Z,999.6
2018-08-08T01:04:25.822Z,999.65
2018-08-08T01:04:51.959Z,999.61
2018-08-08T01:05:18.122Z,999.61
2018-08-08T01:05:44.264Z,999.67
2018-08-08T01:06:10.431Z,999.62
2018-08-08T01:06:36.564Z,999.66
2018-08-08T01:07:02.705Z,999.66
2018-08-08T01:07:28.839Z,999.68
2018-08-08T01:07:54.974Z,999.67
2018-08-08T01:08:21.130Z,999.68
2018-08-08T01:08:47.339Z,999.67
2018-08-08T01:09:13.421Z,999.66
2018-08-08T01:09:39.563Z,999.66
2018-08-08T01:10:05.701Z,999.69
2018-08-08T01:10:31.837Z,999.72
2018-08-08T01:10:57.971Z,999.64
2018-08-08T01:11:24.112Z,999.67
2018-08-08T01:11:50.251Z,999.63
2018-08-08T01:12:16.419Z,999.65
2018-08-08T01:12:42.556Z,999.68
2018-08-08T01:13:08.694Z,999.64
2018-08-08T01:13:34.837Z,999.67
2018-08-08T01:14:00.999Z,999.64
2018-08-08T01:14:27.155Z,999.66
2018-08-08T01:14:53.297Z,999.59
2018-08-08T01:15:19.437Z,999.64
2018-08-08T01:15:45.579Z,999.6
2018-08-08T01:16:11.737Z,999.61
2018-08-08T01:16:37.864Z,999.61
2018-08-08T01:17:04.005Z,999.64
2018-08-08T01:17:30.135Z,999.64
2018-08-08T01:17:56.298Z,999.63
2018-08-08T01:18:22.406Z,999.61
2018-08-08T01:18:48.553Z,999.62
2018-08-08T01:19:14.678Z,999.61
2018-08-08T01:19:40.822Z,999.6
2018-08-08T01:20:06.961Z,999.61
2018-08-08T01:20:33.102Z,999.61
2018-08-08T01:20:59.243Z,999.6
2018-08-08T01:21:25.382Z,999.57
2018-08-08T01:21:51.520Z,999.57
2018-08-08T01:22:17.655Z,999.55
2018-08-08T01:22:43.786Z,999.53
2018-08-08T01:23:09.955Z,999.54
2018-08-08T01:23:36.097Z,999.53
2018-08-08T01:24:02.228Z,999.54
2018-08-08T01:24:28.372Z,999.54
2018-08-08T01:24:54.525Z,999.55
2018-08-08T01:25:20.663Z,999.54
2018-08-08T01:25:46.801Z,999.53
2018-08-08T01:26:12.937Z,999.56
2018-08-08T01:26:39.078Z,999.53
2018-08-08T01:27:05.216Z,999.55
2018-08-08T01:27:31.363Z,999.55
2018-08-08T01:27:57.518Z,999.56
2018-08-08T01:28:23.653Z,999.57
2018-08-08T01:28:49.809Z,999.55
2018-08-08T01:29:15.973Z,999.59
2018-08-08T01:29:42.110Z,999.59
2018-08-08T01:30:08.251Z,999.6
2018-08-08T01:30:34.381Z,999.57
2018-08-08T01:31:00.521Z,999.6
2018-08-08T01:31:26.659Z,999.59
2018-08-08T01:31:52.821Z,999.59
2018-08-08T01:32:18.957Z,999.61
2018-08-08T01:32:45.091Z,999.6
2018-08-08T01:33:11.233Z,999.67
2018-08-08T01:33:37.366Z,999.63
2018-08-08T01:34:03.507Z,999.61
2018-08-08T01:34:29.641Z,999.62
2018-08-08T01:34:55.780Z,999.63
2018-08-08T01:35:21.920Z,999.6
2018-08-08T01:35:48.071Z,999.59
2018-08-08T01:36:14.211Z,999.59
2018-08-08T01:36:40.353Z,999.58
2018-08-08T01:37:06.490Z,999.57
2018-08-08T01:37:32.624Z,999.59
2018-08-08T01:37:58.755Z,999.58
2018-08-08T01:38:24.900Z,999.55
2018-08-08T01:38:51.031Z,999.58
2018-08-08T01:39:17.169Z,999.57
2018-08-08T01:39:43.310Z,999.6
2018-08-08T01:40:09.447Z,999.64
2018-08-08T01:40:35.578Z,999.63
2018-08-08T01:41:01.718Z,999.7
2018-08-08T01:41:27.855Z,999.75
2018-08-08T01:41:53.993Z,999.83
2018-08-08T01:42:20.132Z,999.87
2018-08-08T01:42:46.271Z,999.99
2018-08-08T01:43:12.457Z,1000.09
2018-08-08T01:43:38.597Z,1000.12
2018-08-08T01:44:04.774Z,1000.22
2018-08-08T01:44:30.925Z,1000.26
2018-08-08T01:44:57.078Z,1000.31
2018-08-08T01:45:23.300Z,1000.33
2018-08-08T01:45:49.583Z,1000.4
2018-08-08T01:46:15.537Z,1000.34
2018-08-08T01:46:41.674Z,1000.39
2018-08-08T01:47:07.811Z,1000.36
2018-08-08T01:47:33.949Z,1000.3
2018-08-08T01:48:00.095Z,1000.27
2018-08-08T01:48:26.229Z,1000.19
2018-08-08T01:48:52.373Z,1000.12
2018-08-08T01:49:18.499Z,1000.07
2018-08-08T01:49:44.651Z,1000.06
2018-08-08T01:50:10.793Z,1000.07
2018-08-08T01:50:36.933Z,1000.09
2018-08-08T01:51:03.083Z,1000.13
2018-08-08T01:51:29.222Z,1000.23
2018-08-08T01:51:55.360Z,1000.31
2018-08-08T01:52:21.521Z,1000.38
2018-08-08T01:52:47.677Z,1000.41
2018-08-08T01:53:13.809Z,1000.46
2018-08-08T01:53:39.949Z,1000.49
2018-08-08T01:54:06.086Z,1000.55
2018-08-08T01:54:32.225Z,1000.53
2018-08-08T01:54:58.362Z,1000.5
2018-08-08T01:55:24.503Z,1000.46
2018-08-08T01:55:50.660Z,1000.44
2018-08-08T01:56:16.793Z,1000.39
2018-08-08T01:56:42.928Z,1000.34
2018-08-08T01:57:09.067Z,1000.32
2018-08-08T01:57:35.211Z,1000.33
2018-08-08T01:58:01.342Z,1000.31
2018-08-08T01:58:27.476Z,1000.29
2018-08-08T01:58:53.619Z,1000.27
2018-08-08T01:59:19.795Z,1000.29
2018-08-08T01:59:45.950Z,1000.27
2018-08-08T02:00:12.091Z,1000.26
2018-08-08T02:00:38.248Z,1000.29
2018-08-08T02:01:04.393Z,1000.31
2018-08-08T02:01:30.525Z,1000.32
2018-08-08T02:01:56.663Z,1000.32
2018-08-08T02:02:22.822Z,1000.34
2018-08-08T02:02:48.960Z,1000.3
2018-08-08T02:03:15.094Z,1000.3
2018-08-08T02:03:41.231Z,1000.29
2018-08-08T02:04:07.474Z,1000.3
2018-08-08T02:04:33.529Z,1000.28
2018-08-08T02:04:59.666Z,1000.29
2018-08-08T02:05:25.810Z,1000.29
2018-08-08T02:05:51.942Z,1000.26
2018-08-08T02:06:18.086Z,1000.25
2018-08-08T02:06:44.221Z,1000.23
2018-08-08T02:07:10.355Z,1000.21
2018-08-08T02:07:36.491Z,1000.21
2018-08-08T02:08:02.680Z,1000.24
2018-08-08T02:08:28.844Z,1000.25
2018-08-08T02:08:55.013Z,1000.27
2018-08-08T02:09:21.150Z,1000.32
2018-08-08T02:09:47.288Z,1000.32
2018-08-08T02:10:13.442Z,1000.3
2018-08-08T02:10:39.604Z,1000.3
2018-08-08T02:11:05.763Z,1000.31
2018-08-08T02:11:31.904Z,1000.27
2018-08-08T02:11:58.035Z,1000.29
2018-08-08T02:12:24.169Z,1000.28
2018-08-08T02:12:50.336Z,1000.3
2018-08-08T02:13:16.498Z,1000.27
2018-08-08T02:13:42.633Z,1000.25
2018-08-08T02:14:08.767Z,1000.3
2018-08-08T02:14:34.903Z,1000.27
2018-08-08T02:15:01.066Z,1000.28
2018-08-08T02:15:27.204Z,1000.24
2018-08-08T02:15:53.342Z,1000.24
2018-08-08T02:16:19.477Z,1000.23
2018-08-08T02:16:45.615Z,1000.21
2018-08-08T02:17:11.756Z,1000.25
2018-08-08T02:17:37.888Z,1000.22
2018-08-08T02:18:04.056Z,1000.22
2018-08-08T02:18:30.195Z,1000.2
2018-08-08T02:18:56.332Z,1000.18
2018-08-08T02:19:22.471Z,1000.17
2018-08-08T02:19:48.607Z,1000.17
2018-08-08T02:20:14.741Z,1000.16
2018-08-08T02:20:40.909Z,1000.15
2018-08-08T02:21:07.047Z,1000.18
2018-08-08T02:21:33.181Z,1000.14
2018-08-08T02:21:59.321Z,1000.18
2018-08-08T02:22:25.457Z,1000.17
2018-08-08T02:22:51.591Z,1000.19
2018-08-08T02:23:17.755Z,1000.19
2018-08-08T02:23:43.885Z,1000.2
2018-08-08T02:24:10.033Z,1000.24
2018-08-08T02:24:36.192Z,1000.25
2018-08-08T02:25:02.336Z,1000.24
2018-08-08T02:25:28.470Z,1000.21
2018-08-08T02:25:54.614Z,1000.2
2018-08-08T02:26:20.752Z,1000.17
2018-08-08T02:26:46.889Z,1000.17
2018-08-08T02:27:13.026Z,1000.17
2018-08-08T02:27:39.159Z,1000.14
2018-08-08T02:28:05.288Z,1000.15
2018-08-08T02:28:31.455Z,1000.14
2018-08-08T02:28:57.593Z,1000.14
2018-08-08T02:29:23.754Z,1000.17
2018-08-08T02:29:49.894Z,1000.18
2018-08-08T02:30:16.031Z,1000.16
2018-08-08T02:30:42.195Z,1000.21
2018-08-08T02:31:08.329Z,1000.21
2018-08-08T02:31:34.479Z,1000.2
2018-08-08T02:32:00.640Z,1000.21
2018-08-08T02:32:26.776Z,1000.2
2018-08-08T02:32:52.973Z,1000.23
2018-08-08T02:33:19.125Z,1000.26
2018-08-08T02:33:45.261Z,1000.24
2018-08-08T02:34:11.397Z,1000.33
2018-08-08T02:34:37.566Z,1000.3
2018-08-08T02:35:03.674Z,1000.31
2018-08-08T02:35:29.828Z,1000.32
2018-08-08T02:35:56.007Z,1000.35
2018-08-08T02:36:22.168Z,1000.36
2018-08-08T02:36:48.352Z,1000.38
2018-08-08T02:37:14.535Z,1000.41
2018-08-08T02:37:40.645Z,1000.43
2018-08-08T02:38:06.807Z,1000.47
2018-08-08T02:38:32.999Z,1000.47
2018-08-08T02:38:59.203Z,1000.55
2018-08-08T02:39:25.430Z,1000.62
2018-08-08T02:39:51.540Z,1000.69
2018-08-08T02:40:17.671Z,1000.69
2018-08-08T02:40:43.818Z,1000.75
2018-08-08T02:41:09.956Z,1000.79
2018-08-08T02:41:36.121Z,1000.86
2018-08-08T02:42:02.292Z,1000.89
2018-08-08T02:42:28.457Z,1000.94
2018-08-08T02:42:54.586Z,1000.99
2018-08-08T02:43:20.756Z,1000.98
2018-08-08T02:43:46.938Z,1000.98
2018-08-08T02:44:13.104Z,1000.95
2018-08-08T02:44:39.235Z,1000.98
2018-08-08T02:45:05.413Z,1000.94
2018-08-08T02:45:31.548Z,1000.93
2018-08-08T02:45:57.693Z,1000.91
2018-08-08T02:46:23.830Z,1000.85
2018-08-08T02:46:49.973Z,1000.81
2018-08-08T02:47:16.106Z,1000.77
2018-08-08T02:47:42.276Z,1000.74
2018-08-08T02:48:08.435Z,1000.67
2018-08-08T02:48:34.587Z,1000.63
2018-08-08T02:49:00.733Z,1000.6
2018-08-08T02:49:26.892Z,1000.58
2018-08-08T02:49:53.055Z,1000.57
2018-08-08T02:50:19.187Z,1000.51
2018-08-08T02:50:45.373Z,1000.53
2018-08-08T02:51:11.527Z,1000.49
2018-08-08T02:51:37.690Z,1000.4
2018-08-08T02:52:03.820Z,1000.39
2018-08-08T02:52:30.002Z,1000.42
2018-08-08T02:52:56.138Z,1000.4
2018-08-08T02:53:22.305Z,1000.39
2018-08-08T02:53:48.436Z,1000.38
2018-08-08T02:54:14.568Z,1000.34
2018-08-08T02:54:40.707Z,1000.34
2018-08-08T02:55:06.849Z,1000.36
2018-08-08T02:55:33.028Z,1000.36
2018-08-08T02:55:59.210Z,1000.36
2018-08-08T02:56:25.374Z,1000.32
2018-08-08T02:56:51.516Z,1000.32
2018-08-08T02:57:17.647Z,1000.34
2018-08-08T02:57:43.815Z,1000.3
2018-08-08T02:58:09.971Z,1000.28
2018-08-08T02:58:36.150Z,1000.27
2018-08-08T02:59:02.289Z,1000.26
2018-08-08T02:59:28.431Z,1000.23
2018-08-08T02:59:54.564Z,1000.24
2018-08-08T03:00:20.746Z,1000.23
2018-08-08T03:00:46.915Z,1000.2
2018-08-08T03:01:13.049Z,1000.21
2018-08-08T03:01:39.211Z,1000.21
2018-08-08T03:02:05.346Z,1000.2
2018-08-08T03:02:31.514Z,1000.18
2018-08-08T03:02:57.680Z,1000.22
2018-08-08T03:03:23.839Z,1000.21
2018-08-08T03:03:49.981Z,1000.18
2018-08-08T03:04:16.172Z,1000.2
2018-08-08T03:04:42.334Z,1000.21
2018-08-08T03:05:08.522Z,1000.2
2018-08-08T03:05:34.689Z,1000.18
2018-08-08T03:06:00.874Z,1000.21
2018-08-08T03:06:27.014Z,1000.19
2018-08-08T03:06:53.164Z,1000.26
2018-08-08T03:07:19.303Z,1000.26
2018-08-08T03:07:45.455Z,1000.31
2018-08-08T03:08:11.632Z,1000.35
2018-08-08T03:08:37.838Z,1000.46
2018-08-08T03:09:03.934Z,1000.47
2018-08-08T03:09:30.103Z,1000.48
2018-08-08T03:09:56.265Z,1000.48
2018-08-08T03:10:22.423Z,1000.51
2018-08-08T03:10:48.590Z,1000.48
2018-08-08T03:11:14.745Z,1000.46
2018-08-08T03:11:40.890Z,1000.48
2018-08-08T03:12:07.043Z,1000.46
2018-08-08T03:12:33.177Z,1000.49
2018-08-08T03:12:59.343Z,1000.44
2018-08-08T03:13:25.523Z,1000.43
2018-08-08T03:13:51.702Z,1000.44
2018-08-08T03:14:17.839Z,1000.42
2018-08-08T03:14:43.975Z,1000.4
2018-08-08T03:15:10.133Z,1000.43
2018-08-08T03:15:36.276Z,1000.45
2018-08-08T03:16:02.436Z,1000.42
2018-08-08T03:16:28.572Z,1000.42
2018-08-08T03:16:54.702Z,1000.48
2018-08-08T03:17:20.845Z,1000.49
2018-08-08T03:17:46.995Z,1000.5
2018-08-08T03:18:13.137Z,1000.55
2018-08-08T03:18:39.268Z,1000.57
2018-08-08T03:19:05.413Z,1000.6
2018-08-08T03:19:31.619Z,1000.61
2018-08-08T03:19:57.706Z,1000.61
2018-08-08T03:20:23.848Z,1000.65
2018-08-08T03:20:49.975Z,1000.67
2018-08-08T03:21:16.107Z,1000.71
2018-08-08T03:21:42.246Z,1000.68
2018-08-08T03:22:08.389Z,1000.71
2018-08-08T03:22:34.521Z,1000.71
2018-08-08T03:23:00.662Z,1000.69
2018-08-08T03:23:26.795Z,1000.69
2018-08-08T03:23:52.953Z,1000.68
2018-08-08T03:24:19.091Z,1000.71
2018-08-08T03:24:45.225Z,1000.72
2018-08-08T03:25:11.366Z,1000.68
2018-08-08T03:25:37.508Z,1000.72
2018-08-08T03:26:03.708Z,1000.74
2018-08-08T03:26:29.840Z,1000.74
2018-08-08T03:26:55.983Z,1000.75
2018-08-08T03:27:22.128Z,1000.77
2018-08-08T03:27:48.287Z,1000.78
2018-08-08T03:28:14.418Z,1000.77
2018-08-08T03:28:40.591Z,1000.77
2018-08-08T03:29:06.733Z,1000.76
2018-08-08T03:29:32.914Z,1000.74
2018-08-08T03:29:59.045Z,1000.72
2018-08-08T03:30:25.230Z,1000.68
2018-08-08T03:30:51.420Z,1000.67
2018-08-08T03:31:17.594Z,1000.67
2018-08-08T03:31:43.739Z,1000.66
2018-08-08T03:32:09.877Z,1000.7
2018-08-08T03:32:36.002Z,1000.68
2018-08-08T03:33:02.143Z,1000.67
2018-08-08T03:33:28.332Z,1000.7
2018-08-08T03:33:54.462Z,1000.73
2018-08-08T03:34:20.607Z,1000.73
2018-08-08T03:34:46.750Z,1000.75
2018-08-08T03:35:12.882Z,1000.71
2018-08-08T03:35:39.022Z,1000.76
2018-08-08T03:36:05.163Z,1000.74
2018-08-08T03:36:31.303Z,1000.8
2018-08-08T03:36:57.436Z,1000.77
2018-08-08T03:37:23.574Z,1000.79
2018-08-08T03:37:49.712Z,1000.8
2018-08-08T03:38:15.870Z,1000.8
2018-08-08T03:38:42.004Z,1000.79
2018-08-08T03:39:08.166Z,1000.84
2018-08-08T03:39:34.306Z,1000.82
2018-08-08T03:40:00.458Z,1000.81
2018-08-08T03:40:26.589Z,1000.84
2018-08-08T03:40:52.729Z,1000.86
2018-08-08T03:41:18.870Z,1000.88
2018-08-08T03:41:45.004Z,1000.91
2018-08-08T03:42:11.189Z,1000.89
2018-08-08T03:42:37.342Z,1000.88
2018-08-08T03:43:03.478Z,1000.9
2018-08-08T03:43:29.616Z,1000.89
2018-08-08T03:43:55.752Z,1000.9
2018-08-08T03:44:21.914Z,1000.89
2018-08-08T03:44:48.054Z,1000.96
2018-08-08T03:45:14.215Z,1000.97
2018-08-08T03:45:40.359Z,1001.03
2018-08-08T03:46:06.505Z,1001.04
2018-08-08T03:46:32.647Z,1001.08
2018-08-08T03:46:58.778Z,1001.14
2018-08-08T03:47:24.921Z,1001.15
2018-08-08T03:47:51.070Z,1001.17
2018-08-08T03:48:17.204Z,1001.18
2018-08-08T03:48:43.344Z,1001.21
2018-08-08T03:49:09.526Z,1001.27
2018-08-08T03:49:35.665Z,1001.29
2018-08-08T03:50:01.808Z,1001.29
2018-08-08T03:50:27.962Z,1001.34
2018-08-08T03:50:54.092Z,1001.39
2018-08-08T03:51:20.235Z,1001.41
2018-08-08T03:51:46.371Z,1001.42
2018-08-08T03:52:12.506Z,1001.4
2018-08-08T03:52:38.666Z,1001.45
2018-08-08T03:53:04.849Z,1001.47
2018-08-08T03:53:30.943Z,1001.43
2018-08-08T03:53:57.097Z,1001.45
2018-08-08T03:54:23.238Z,1001.44
2018-08-08T03:54:49.377Z,1001.45
2018-08-08T03:55:15.557Z,1001.45
2018-08-08T03:55:41.698Z,1001.46
2018-08-08T03:56:07.854Z,1001.43
2018-08-08T03:56:33.997Z,1001.46
2018-08-08T03:57:00.132Z,1001.49
2018-08-08T03:57:26.275Z,1001.51
2018-08-08T03:57:52.548Z,1001.53
2018-08-08T03:58:18.573Z,1001.57
2018-08-08T03:58:44.712Z,1001.55
2018-08-08T03:59:10.849Z,1001.55
2018-08-08T03:59:37.010Z,1001.54
2018-08-08T04:00:03.170Z,1001.56
2018-08-08T04:00:29.354Z,1001.54
2018-08-08T04:00:55.487Z,1001.56
2018-08-08T04:01:21.633Z,1001.55
2018-08-08T04:01:47.794Z,1001.53
2018-08-08T04:02:13.906Z,1001.52
2018-08-08T04:02:40.117Z,1001.51
2018-08-08T04:03:06.240Z,1001.53
2018-08-08T04:03:32.382Z,1001.51
2018-08-08T04:03:58.514Z,1001.48
2018-08-08T04:04:24.664Z,1001.46
2018-08-08T04:04:50.795Z,1001.43
2018-08-08T04:05:16.929Z,1001.41
2018-08-08T04:05:43.088Z,1001.34
2018-08-08T04:06:09.243Z,1001.27
2018-08-08T04:06:35.378Z,1001.29
2018-08-08T04:07:01.515Z,1001.25
2018-08-08T04:07:27.646Z,1001.26
2018-08-08T04:07:53.784Z,1001.28
2018-08-08T04:08:19.921Z,1001.26
2018-08-08T04:08:46.070Z,1001.21
2018-08-08T04:09:12.208Z,1001.25
2018-08-08T04:09:38.346Z,1001.28
2018-08-08T04:10:04.493Z,1001.29
2018-08-08T04:10:30.618Z,1001.28
2018-08-08T04:10:56.752Z,1001.25
2018-08-08T04:11:22.897Z,1001.25
2018-08-08T04:11:49.032Z,1001.25
2018-08-08T04:12:15.166Z,1001.22
2018-08-08T04:12:41.328Z,1001.17
2018-08-08T04:13:07.462Z,1001.14
2018-08-08T04:13:33.600Z,1001.08
2018-08-08T04:13:59.733Z,1001.02
2018-08-08T04:14:25.889Z,1000.99
2018-08-08T04:14:52.054Z,1001
2018-08-08T04:15:18.197Z,1001
2018-08-08T04:15:44.325Z,1001.03
2018-08-08T04:16:10.468Z,1001.08
2018-08-08T04:16:36.598Z,1001.13
2018-08-08T04:17:02.742Z,1001.19
2018-08-08T04:17:28.873Z,1001.21
2018-08-08T04:17:55.014Z,1001.26
2018-08-08T04:18:21.143Z,1001.32
2018-08-08T04:18:47.302Z,1001.34
2018-08-08T04:19:13.480Z,1001.4
2018-08-08T04:19:39.621Z,1001.44
2018-08-08T04:20:05.756Z,1001.5
2018-08-08T04:20:31.917Z,1001.53
2018-08-08T04:20:58.055Z,1001.59
2018-08-08T04:21:24.204Z,1001.67
2018-08-08T04:21:50.410Z,1001.68
2018-08-08T04:22:16.483Z,1001.74
2018-08-08T04:22:42.644Z,1001.82
2018-08-08T04:23:08.804Z,1001.89
2018-08-08T04:23:34.948Z,1001.95
2018-08-08T04:24:01.114Z,1001.97
2018-08-08T04:24:27.263Z,1002.01
2018-08-08T04:24:53.400Z,1002.03
2018-08-08T04:25:19.545Z,1002.09
2018-08-08T04:25:45.679Z,1002.08
2018-08-08T04:26:11.819Z,1002.12
2018-08-08T04:26:37.962Z,1002.11
2018-08-08T04:27:04.101Z,1002.19
2018-08-08T04:27:30.240Z,1002.2
2018-08-08T04:27:56.404Z,1002.24
2018-08-08T04:28:22.544Z,1002.29
2018-08-08T04:28:48.684Z,1002.3
2018-08-08T04:29:14.822Z,1002.4
2018-08-08T04:29:40.958Z,1002.34
2018-08-08T04:30:07.097Z,1002.46
2018-08-08T04:30:33.225Z,1002.44
2018-08-08T04:30:59.414Z,1002.45
2018-08-08T04:31:25.496Z,1002.51
2018-08-08T04:31:51.656Z,1002.55
2018-08-08T04:32:17.795Z,1002.57
2018-08-08T04:32:43.933Z,1002.61
2018-08-08T04:33:10.065Z,1002.64
2018-08-08T04:33:36.232Z,1002.68
2018-08-08T04:34:02.368Z,1002.7
2018-08-08T04:34:28.501Z,1002.74
2018-08-08T04:34:54.646Z,1002.73
2018-08-08T04:35:20.783Z,1002.77
2018-08-08T04:35:46.920Z,1002.78
2018-08-08T04:36:13.082Z,1002.89
2018-08-08T04:36:39.216Z,1002.82
2018-08-08T04:37:05.378Z,1002.86
2018-08-08T04:37:31.510Z,1002.85
2018-08-08T04:37:57.650Z,1002.87
2018-08-08T04:38:23.810Z,1002.84
2018-08-08T04:38:49.972Z,1002.9
2018-08-08T04:39:16.105Z,1002.92
2018-08-08T04:39:42.241Z,1002.89
2018-08-08T04:40:08.371Z,1002.86
2018-08-08T04:40:34.506Z,1002.85
2018-08-08T04:41:00.648Z,1002.83
2018-08-08T04:41:26.782Z,1002.85
2018-08-08T04:41:52.924Z,1002.82
2018-08-08T04:42:19.062Z,1002.8
2018-08-08T04:42:45.226Z,1002.76
2018-08-08T04:43:11.361Z,1002.81
2018-08-08T04:43:37.538Z,1002.62
2018-08-08T04:44:03.653Z,1002.68
2018-08-08T04:44:29.789Z,1002.65
2018-08-08T04:44:55.929Z,1002.63
2018-08-08T04:45:22.075Z,1002.53
2018-08-08T04:45:48.218Z,1002.54
2018-08-08T04:46:14.344Z,1002.47
2018-08-08T04:46:40.478Z,1002.42
2018-08-08T04:47:06.621Z,1002.38
2018-08-08T04:47:32.756Z,1002.35
2018-08-08T04:47:58.894Z,1002.28
2018-08-08T04:48:25.033Z,1002.27
2018-08-08T04:48:51.193Z,1002.23
2018-08-08T04:49:17.351Z,1002.22
2018-08-08T04:49:43.485Z,1002.23
2018-08-08T04:50:09.629Z,1002.2
2018-08-08T04:50:35.766Z,1002.22
2018-08-08T04:51:01.990Z,1002.2
2018-08-08T04:51:28.054Z,1002.2
2018-08-08T04:51:54.193Z,1002.2
2018-08-08T04:52:20.326Z,1002.21
2018-08-08T04:52:46.461Z,1002.2
2018-08-08T04:53:12.620Z,1002.23
2018-08-08T04:53:38.780Z,1002.25
2018-08-08T04:54:04.916Z,1002.31
2018-08-08T04:54:31.053Z,1002.38
2018-08-08T04:54:57.196Z,1002.34
2018-08-08T04:55:23.345Z,1002.29
2018-08-08T04:55:49.497Z,1002.22
2018-08-08T04:56:15.660Z,1002.17
2018-08-08T04:56:41.793Z,1002.18
2018-08-08T04:57:07.933Z,1002.18
2018-08-08T04:57:34.070Z,1002.17
2018-08-08T04:58:00.211Z,1002.24
2018-08-08T04:58:26.342Z,1002.25
2018-08-08T04:58:52.486Z,1002.3
2018-08-08T04:59:18.616Z,1002.34
2018-08-08T04:59:44.756Z,1002.45
2018-08-08T05:00:10.952Z,1002.53
2018-08-08T05:00:37.062Z,1002.65
2018-08-08T05:01:03.260Z,1002.73
2018-08-08T05:01:29.391Z,1002.8
2018-08-08T05:01:55.523Z,1002.92
2018-08-08T05:02:21.667Z,1002.97
2018-08-08T05:02:47.804Z,1003.05
2018-08-08T05:03:13.963Z,1003.08
2018-08-08T05:03:40.103Z,1003.15
2018-08-08T05:04:06.244Z,1003.22
2018-08-08T05:04:32.378Z,1003.23
2018-08-08T05:04:58.536Z,1003.32
2018-08-08T05:05:24.667Z,1003.26
2018-08-08T05:05:50.804Z,1003.27
2018-08-08T05:06:16.960Z,1003.23
2018-08-08T05:06:43.099Z,1003.24
2018-08-08T05:07:09.243Z,1003.21
2018-08-08T05:07:35.376Z,1003.23
2018-08-08T05:08:01.680Z,1003.26
2018-08-08T05:08:27.692Z,1003.2
2018-08-08T05:08:53.837Z,1003.2
2018-08-08T05:09:19.984Z,1003.27
2018-08-08T05:09:46.131Z,1003.24
2018-08-08T05:10:12.270Z,1003.29
2018-08-08T05:10:38.409Z,1003.26
2018-08-08T05:11:04.561Z,1003.26
2018-08-08T05:11:30.747Z,1003.28
2018-08-08T05:11:56.909Z,1003.28
2018-08-08T05:12:23.047Z,1003.29
2018-08-08T05:12:49.208Z,1003.31
2018-08-08T05:13:15.372Z,1003.29
2018-08-08T05:13:41.516Z,1003.31
2018-08-08T05:14:07.645Z,1003.3
2018-08-08T05:14:33.781Z,1003.3
2018-08-08T05:14:59.915Z,1003.33
2018-08-08T05:15:26.076Z,1003.33
2018-08-08T05:15:52.212Z,1003.28
2018-08-08T05:16:18.348Z,1003.3
2018-08-08T05:16:44.515Z,1003.31
2018-08-08T05:17:10.672Z,1003.26
2018-08-08T05:17:36.841Z,1003.28
2018-08-08T05:18:02.979Z,1003.26
2018-08-08T05:18:29.124Z,1003.24
2018-08-08T05:18:55.260Z,1003.24
2018-08-08T05:19:21.391Z,1003.25
2018-08-08T05:19:47.521Z,1003.27
2018-08-08T05:20:13.775Z,1003.24
2018-08-08T05:20:39.881Z,1003.34